createdAt,value
2023-04-29T00:01:27.569Z,17.80
2023-04-29T00:03:54.859Z,13.57
2023-04-29T00:06:22.615Z,14.07
2023-04-29T00:08:49.930Z,17.97
2023-04-29T00:11:16.937Z,18.90
2023-04-29T00:13:44.081Z,16.40
2023-04-29T00:16:11.310Z,13.97
2023-04-29T00:18:38.457Z,17.03
2023-04-29T00:21:06.092Z,16.93
2023-04-29T00:23:34.367Z,16.70
2023-04-29T00:26:01.589Z,15.37
2023-04-29T00:28:28.617Z,16.83
2023-04-29T00:30:56.265Z,20.67
2023-04-29T00:33:23.600Z,19.03
2023-04-29T00:35:50.926Z,15.70
2023-04-29T00:38:17.958Z,19.07
2023-04-29T00:40:45.394Z,15.90
2023-04-29T00:43:12.799Z,20.23
2023-04-29T00:45:40.267Z,19.37
2023-04-29T00:48:08.032Z,15.10
2023-04-29T00:50:36.793Z,16.00
2023-04-29T00:53:04.483Z,17.10
2023-04-29T00:55:32.927Z,17.37
2023-04-29T00:58:00.742Z,23.23
2023-04-29T01:00:28.497Z,18.13
2023-04-29T01:02:57.192Z,16.90
2023-04-29T01:05:25.174Z,18.67
2023-04-29T01:08:28.542Z,15.30
2023-04-29T01:11:12.982Z,16.33
2023-04-29T01:14:00.701Z,15.83
2023-04-29T01:16:49.592Z,22.83
2023-04-29T01:19:47.753Z,16.50
2023-04-29T01:22:17.660Z,18.87
2023-04-29T01:24:44.971Z,18.37
2023-04-29T01:27:54.217Z,18.23
2023-04-29T01:31:04.799Z,18.43
2023-04-29T01:33:39.537Z,16.57
2023-04-29T01:36:29.062Z,17.37
2023-04-29T01:39:37.249Z,16.63
2023-04-29T01:42:17.652Z,17.27
2023-04-29T01:44:46.717Z,16.40
2023-04-29T01:47:14.833Z,16.53
2023-04-29T01:49:41.812Z,18.03
2023-04-29T01:52:08.804Z,12.40
2023-04-29T01:54:36.536Z,19.13
2023-04-29T01:57:03.877Z,18.27
2023-04-29T01:59:31.718Z,18.03
2023-04-29T02:01:59.047Z,14.20
2023-04-29T02:04:27.851Z,11.00
2023-04-29T02:06:54.926Z,18.20
2023-04-29T02:09:21.901Z,14.27
2023-04-29T02:11:48.898Z,13.57
2023-04-29T02:14:15.946Z,15.03
2023-04-29T02:16:46.083Z,14.70
2023-04-29T02:23:23.028Z,15.73
2023-04-29T02:25:50.020Z,15.43
2023-04-29T02:28:17.868Z,14.23
2023-04-29T02:30:45.242Z,15.70
2023-04-29T02:33:12.377Z,16.40
2023-04-29T02:35:39.394Z,16.87
2023-04-29T02:38:06.366Z,12.83
2023-04-29T02:40:33.416Z,14.03
2023-04-29T02:43:01.614Z,14.47
2023-04-29T02:45:28.582Z,11.23
2023-04-29T02:47:55.629Z,15.40
2023-04-29T02:50:22.656Z,13.57
2023-04-29T02:52:49.625Z,15.30
2023-04-29T02:55:17.174Z,12.83
2023-04-29T02:57:44.540Z,12.87
2023-04-29T03:00:12.007Z,16.90
2023-04-29T03:02:39.258Z,15.30
2023-04-29T03:05:06.738Z,14.77
2023-04-29T03:07:34.326Z,14.70
2023-04-29T03:10:01.689Z,18.17
2023-04-29T03:12:28.702Z,12.20
2023-04-29T03:14:55.677Z,15.43
2023-04-29T03:17:22.714Z,17.93
2023-04-29T03:19:51.326Z,14.77
2023-04-29T03:22:18.683Z,12.57
2023-04-29T03:24:45.801Z,11.93
2023-04-29T03:27:12.781Z,14.07
2023-04-29T03:29:39.802Z,12.37
2023-04-29T03:32:07.356Z,15.40
2023-04-29T03:34:34.423Z,19.53
2023-04-29T03:37:01.484Z,13.30
2023-04-29T03:39:32.397Z,13.73
2023-04-29T03:42:00.156Z,13.97
2023-04-29T03:44:29.044Z,11.30
2023-04-29T03:46:56.034Z,14.07
2023-04-29T03:49:23.802Z,13.37
2023-04-29T03:51:50.971Z,15.20
2023-04-29T03:54:18.236Z,17.70
2023-04-29T03:56:45.205Z,12.77
2023-04-29T03:59:12.201Z,21.30
2023-04-29T04:01:39.189Z,20.30
2023-04-29T04:04:06.416Z,14.70
2023-04-29T04:06:33.570Z,12.20
2023-04-29T04:09:00.599Z,12.63
2023-04-29T04:11:27.741Z,13.47
2023-04-29T04:13:54.772Z,14.10
2023-04-29T04:16:21.918Z,12.17
2023-04-29T04:18:49.324Z,16.13
2023-04-29T04:21:16.372Z,10.00
2023-04-29T04:23:44.165Z,12.43
2023-04-29T04:26:11.236Z,14.17
2023-04-29T04:28:38.420Z,15.50
2023-04-29T04:31:06.437Z,11.97
2023-04-29T04:33:34.579Z,12.98
2023-04-29T04:36:01.690Z,13.55
2023-04-29T04:38:28.696Z,11.35
2023-04-29T04:40:55.710Z,10.98
2023-04-29T04:43:22.931Z,9.57
2023-04-29T04:45:50.127Z,9.25
2023-04-29T04:48:17.105Z,12.18
2023-04-29T04:50:44.104Z,12.02
2023-04-29T04:53:11.257Z,12.68
2023-04-29T04:55:38.392Z,10.50
2023-04-29T04:58:05.448Z,10.90
2023-04-29T05:00:32.467Z,7.63
2023-04-29T05:02:59.652Z,10.30
2023-04-29T05:05:26.879Z,11.65
2023-04-29T05:07:53.886Z,11.68
2023-04-29T05:10:20.971Z,16.20
2023-04-29T05:12:48.264Z,14.07
2023-04-29T05:15:16.790Z,9.35
2023-04-29T05:17:43.837Z,11.02
2023-04-29T05:20:11.408Z,11.07
2023-04-29T05:22:38.458Z,8.25
2023-04-29T05:25:06.202Z,13.00
2023-04-29T05:27:33.235Z,8.20
2023-04-29T05:30:00.264Z,15.45
2023-04-29T05:32:27.449Z,10.13
2023-04-29T05:34:54.456Z,10.30
2023-04-29T05:37:21.468Z,9.45
2023-04-29T05:39:48.450Z,13.50
2023-04-29T05:42:15.793Z,16.48
2023-04-29T05:44:42.773Z,8.93
2023-04-29T05:47:09.865Z,10.55
2023-04-29T05:49:36.931Z,7.32
2023-04-29T05:52:06.513Z,11.10
2023-04-29T05:54:34.580Z,9.52
2023-04-29T05:57:02.563Z,10.45
2023-04-29T05:59:33.443Z,9.10
2023-04-29T06:02:01.461Z,11.52
2023-04-29T06:04:28.712Z,14.00
2023-04-29T06:06:57.548Z,10.77
2023-04-29T06:09:28.276Z,14.43
2023-04-29T06:11:56.249Z,14.27
2023-04-29T06:14:23.667Z,10.10
2023-04-29T06:16:50.797Z,9.13
2023-04-29T06:19:17.889Z,9.32
2023-04-29T06:21:44.913Z,10.07
2023-04-29T06:24:11.874Z,8.07
2023-04-29T06:26:38.930Z,10.93
2023-04-29T06:29:06.001Z,10.52
2023-04-29T06:31:33.120Z,8.38
2023-04-29T06:34:00.227Z,10.27
2023-04-29T06:36:28.366Z,9.82
2023-04-29T06:38:55.688Z,9.85
2023-04-29T06:41:23.766Z,10.20
2023-04-29T06:43:51.282Z,8.05
2023-04-29T06:46:18.329Z,9.98
2023-04-29T06:48:45.967Z,8.60
2023-04-29T06:51:13.401Z,9.00
2023-04-29T06:53:40.714Z,8.50
2023-04-29T06:56:08.088Z,13.52
2023-04-29T06:58:35.093Z,8.43
2023-04-29T07:01:04.287Z,9.23
2023-04-29T07:03:31.449Z,9.77
2023-04-29T07:05:58.518Z,14.57
2023-04-29T07:08:25.613Z,6.68
2023-04-29T07:10:57.292Z,6.95
2023-04-29T07:13:27.450Z,8.93
2023-04-29T07:15:54.517Z,9.63
2023-04-29T07:18:21.629Z,8.40
2023-04-29T07:20:49.670Z,8.25
2023-04-29T07:23:16.813Z,10.40
2023-04-29T07:25:43.836Z,6.75
2023-04-29T07:28:11.009Z,8.70
2023-04-29T07:30:38.676Z,4.40
2023-04-29T07:33:05.765Z,11.70
2023-04-29T07:35:33.265Z,9.50
2023-04-29T07:38:00.302Z,7.95
2023-04-29T07:40:27.338Z,8.45
2023-04-29T07:42:54.375Z,7.88
2023-04-29T07:45:21.406Z,7.38
2023-04-29T07:47:48.439Z,9.20
2023-04-29T07:50:16.328Z,14.05
2023-04-29T07:52:43.338Z,9.05
2023-04-29T07:55:10.319Z,9.02
2023-04-29T07:57:37.475Z,5.95
2023-04-29T08:00:05.142Z,7.90
2023-04-29T08:02:32.805Z,6.03
2023-04-29T08:05:01.120Z,11.07
2023-04-29T08:07:28.618Z,5.47
2023-04-29T08:09:55.838Z,9.63
2023-04-29T08:12:22.820Z,12.32
2023-04-29T08:14:49.783Z,8.32
2023-04-29T08:17:16.754Z,6.93
2023-04-29T08:19:44.594Z,11.00
2023-04-29T08:22:12.343Z,9.80
2023-04-29T08:24:39.383Z,8.73
2023-04-29T08:27:06.746Z,12.43
2023-04-29T08:29:34.412Z,8.68
2023-04-29T08:32:01.731Z,5.45
2023-04-29T08:34:28.904Z,6.47
2023-04-29T08:36:57.614Z,5.65
2023-04-29T08:39:25.407Z,6.60
2023-04-29T08:41:53.595Z,6.28
2023-04-29T08:44:21.597Z,12.40
2023-04-29T08:46:49.326Z,9.38
2023-04-29T08:49:16.340Z,4.78
2023-04-29T08:51:43.319Z,13.80
2023-04-29T08:54:11.780Z,4.95
2023-04-29T08:56:39.591Z,12.27
2023-04-29T08:59:10.680Z,6.50
2023-04-29T09:01:42.286Z,8.63
2023-04-29T09:04:18.715Z,8.23
2023-04-29T09:06:46.878Z,6.50
2023-04-29T09:09:15.399Z,7.07
2023-04-29T09:11:42.402Z,5.57
2023-04-29T09:14:09.584Z,7.03
2023-04-29T09:16:38.266Z,9.30
2023-04-29T09:19:05.544Z,10.98
2023-04-29T09:21:32.580Z,7.45
2023-04-29T09:24:02.412Z,7.47
2023-04-29T09:26:42.982Z,10.32
2023-04-29T09:29:18.433Z,12.52
2023-04-29T09:31:46.813Z,6.30
2023-04-29T09:34:14.752Z,8.93
2023-04-29T09:36:47.956Z,7.88
2023-04-29T09:39:21.229Z,5.47
2023-04-29T09:41:54.144Z,8.98
2023-04-29T09:44:32.225Z,14.65
2023-04-29T09:47:10.223Z,10.82
2023-04-29T09:49:43.271Z,10.80
2023-04-29T09:52:13.005Z,11.27
2023-04-29T09:54:42.091Z,5.00
2023-04-29T09:57:11.417Z,6.18
2023-04-29T09:59:41.564Z,7.05
2023-04-29T10:02:20.840Z,7.07
2023-04-29T10:04:58.303Z,9.43
2023-04-29T10:07:28.131Z,9.80
2023-04-29T10:09:56.138Z,10.75
2023-04-29T10:12:24.020Z,7.90
2023-04-29T10:15:13.889Z,7.20
2023-04-29T10:17:52.648Z,7.78
2023-04-29T10:20:25.234Z,6.85
2023-04-29T10:22:56.718Z,11.40
2023-04-29T10:25:26.276Z,5.75
2023-04-29T10:27:55.288Z,7.70
2023-04-29T10:30:22.738Z,7.25
2023-04-29T10:32:52.809Z,8.25
2023-04-29T10:35:25.558Z,10.43
2023-04-29T10:37:54.277Z,11.23
2023-04-29T10:40:58.258Z,9.15
2023-04-29T10:43:26.551Z,8.63
2023-04-29T10:46:27.056Z,4.97
2023-04-29T10:49:02.644Z,8.20
2023-04-29T10:51:44.993Z,7.57
2023-04-29T10:54:17.598Z,7.43
2023-04-29T10:56:50.293Z,7.38
2023-04-29T10:59:43.088Z,8.55
2023-04-29T11:02:12.926Z,6.72
2023-04-29T11:05:10.182Z,6.50
2023-04-29T11:07:37.361Z,6.10
2023-04-29T11:10:07.356Z,5.63
2023-04-29T11:12:34.350Z,6.18
2023-04-29T11:15:05.063Z,5.38
2023-04-29T11:17:38.713Z,5.30
2023-04-29T11:20:18.520Z,6.20
2023-04-29T11:22:52.251Z,9.00
2023-04-29T11:25:19.274Z,6.35
2023-04-29T11:27:49.165Z,7.70
2023-04-29T11:30:16.987Z,10.95
2023-04-29T11:32:44.132Z,4.05
2023-04-29T11:35:16.977Z,7.35
2023-04-29T11:37:46.687Z,8.55
2023-04-29T11:40:15.412Z,8.43
2023-04-29T11:42:46.661Z,8.88
2023-04-29T11:45:15.235Z,7.55
2023-04-29T11:47:46.970Z,8.52
2023-04-29T11:50:17.858Z,5.15
2023-04-29T11:52:47.994Z,7.63
2023-04-29T11:55:15.185Z,6.45
2023-04-29T11:57:42.726Z,8.10
2023-04-29T12:00:14.448Z,6.97
2023-04-29T12:02:46.546Z,6.53
2023-04-29T12:05:16.120Z,5.85
2023-04-29T12:07:43.803Z,7.68
2023-04-29T12:10:12.371Z,5.60
2023-04-29T12:12:47.439Z,8.40
2023-04-29T12:15:15.127Z,6.13
2023-04-29T12:17:43.621Z,7.50
2023-04-29T12:20:12.044Z,7.68
2023-04-29T12:22:39.584Z,8.77
2023-04-29T12:25:07.910Z,6.57
2023-04-29T12:27:37.178Z,11.77
2023-04-29T12:30:09.594Z,8.65
2023-04-29T12:32:37.562Z,10.40
2023-04-29T12:35:05.428Z,9.40
2023-04-29T12:37:33.605Z,8.35
2023-04-29T12:40:00.741Z,4.28
2023-04-29T12:42:34.243Z,7.43
2023-04-29T12:45:01.279Z,11.32
2023-04-29T12:47:37.262Z,9.60
2023-04-29T12:50:06.937Z,9.02
2023-04-29T12:52:36.472Z,7.05
2023-04-29T12:55:04.720Z,8.20
2023-04-29T12:57:31.807Z,7.28
2023-04-29T12:59:58.785Z,6.90
2023-04-29T13:04:53.484Z,5.78
2023-04-29T13:07:21.087Z,6.95
2023-04-29T13:09:48.055Z,6.28
2023-04-29T13:12:15.048Z,7.57
2023-04-29T13:14:42.035Z,6.75
2023-04-29T13:17:10.604Z,6.20
2023-04-29T13:19:50.232Z,8.10
2023-04-29T13:22:18.317Z,4.78
2023-04-29T13:24:45.975Z,7.05
2023-04-29T13:27:13.156Z,9.80
2023-04-29T13:29:40.167Z,7.95
2023-04-29T13:32:08.275Z,6.35
2023-04-29T13:34:35.337Z,6.47
2023-04-29T13:37:02.523Z,7.03
2023-04-29T13:39:29.547Z,6.05
2023-04-29T13:41:59.288Z,7.57
2023-04-29T13:44:33.274Z,10.88
2023-04-29T13:47:18.192Z,6.22
2023-04-29T13:55:25.779Z,10.38
2023-04-29T13:58:36.336Z,8.57
2023-04-29T14:00:57.027Z,4.72
2023-04-29T14:03:13.087Z,10.35
2023-04-29T14:05:41.499Z,6.65
2023-04-29T14:08:08.501Z,8.88
2023-04-29T14:10:36.954Z,8.13
2023-04-29T14:13:03.968Z,6.65
2023-04-29T14:15:31.200Z,9.85
2023-04-29T14:17:58.363Z,5.90
2023-04-29T14:20:25.420Z,7.03
2023-04-29T14:22:53.055Z,7.80
2023-04-29T14:25:20.107Z,9.65
2023-04-29T14:27:49.184Z,8.70
2023-04-29T14:30:16.246Z,7.13
2023-04-29T14:32:43.411Z,19.23
2023-04-29T14:35:10.590Z,6.55
2023-04-29T14:37:37.625Z,5.10
2023-04-29T14:40:06.382Z,10.13
2023-04-29T14:42:33.419Z,8.05
2023-04-29T14:45:00.527Z,7.95
2023-04-29T14:47:29.044Z,8.38
2023-04-29T14:49:56.450Z,9.95
2023-04-29T14:52:23.500Z,7.55
2023-04-29T14:54:51.261Z,9.63
2023-04-29T14:57:18.467Z,6.85
2023-04-29T14:59:45.502Z,6.75
2023-04-29T15:02:12.706Z,6.93
2023-04-29T15:04:45.520Z,10.32
2023-04-29T15:07:13.897Z,11.90
2023-04-29T15:09:41.347Z,6.45
2023-04-29T15:12:09.646Z,10.00
2023-04-29T15:14:37.069Z,5.20
2023-04-29T15:17:04.166Z,7.88
2023-04-29T15:19:31.150Z,9.80
2023-04-29T15:21:58.133Z,7.90
2023-04-29T15:24:25.165Z,6.05
2023-04-29T15:26:53.311Z,7.97
2023-04-29T15:29:20.595Z,6.03
2023-04-29T15:31:47.724Z,8.20
2023-04-29T15:34:14.757Z,7.32
2023-04-29T15:36:42.401Z,12.02
2023-04-29T15:39:11.082Z,9.07
2023-04-29T15:41:39.099Z,10.13
2023-04-29T15:44:06.624Z,9.05
2023-04-29T15:46:33.803Z,9.25
2023-04-29T15:49:01.172Z,6.68
2023-04-29T15:51:28.161Z,8.38
2023-04-29T15:53:55.159Z,9.32
2023-04-29T15:56:22.191Z,8.85
2023-04-29T15:58:49.214Z,9.63
2023-04-29T16:01:16.309Z,9.45
2023-04-29T16:03:43.381Z,10.77
2023-04-29T16:06:10.640Z,9.18
2023-04-29T16:08:37.648Z,6.13
2023-04-29T16:11:04.685Z,7.72
2023-04-29T16:13:31.958Z,6.35
2023-04-29T16:15:59.816Z,8.02
2023-04-29T16:18:27.454Z,10.52
2023-04-29T16:20:54.496Z,5.47
2023-04-29T16:23:21.840Z,6.68
2023-04-29T16:25:49.070Z,10.07
2023-04-29T16:28:16.332Z,6.38
2023-04-29T16:30:43.749Z,6.97
2023-04-29T16:33:10.770Z,7.60
2023-04-29T16:35:37.840Z,8.45
2023-04-29T16:38:04.832Z,8.45
2023-04-29T16:40:31.910Z,8.35
2023-04-29T16:42:58.960Z,12.20
2023-04-29T16:45:26.390Z,9.48
2023-04-29T16:47:54.740Z,6.10
2023-04-29T16:50:21.974Z,9.65
2023-04-29T16:52:49.272Z,9.45
2023-04-29T16:55:16.356Z,6.38
2023-04-29T16:57:43.813Z,8.63
2023-04-29T17:00:12.155Z,7.15
2023-04-29T17:02:40.488Z,8.30
2023-04-29T17:05:09.086Z,8.90
2023-04-29T17:07:36.274Z,10.27
2023-04-29T17:10:04.407Z,13.73
2023-04-29T17:12:31.448Z,10.52
2023-04-29T17:14:58.549Z,9.82
2023-04-29T17:17:25.650Z,10.65
2023-04-29T17:19:52.959Z,7.28
2023-04-29T17:22:20.476Z,9.75
2023-04-29T17:24:48.626Z,8.63
2023-04-29T17:27:15.662Z,10.38
2023-04-29T17:29:42.728Z,10.65
2023-04-29T17:32:15.333Z,10.40
2023-04-29T17:34:42.453Z,10.43
2023-04-29T17:37:09.559Z,11.27
2023-04-29T17:39:36.577Z,10.75
2023-04-29T17:42:03.748Z,9.90
2023-04-29T17:44:30.801Z,10.23
2023-04-29T17:46:57.771Z,9.63
2023-04-29T17:49:25.200Z,8.82
2023-04-29T17:51:52.650Z,10.45
2023-04-29T17:54:19.680Z,9.65
2023-04-29T17:56:46.746Z,8.70
2023-04-29T17:59:13.717Z,10.30
2023-04-29T18:01:41.699Z,9.77
2023-04-29T18:04:08.932Z,12.13
2023-04-29T18:06:36.174Z,9.00
2023-04-29T18:09:04.693Z,11.20
2023-04-29T18:11:32.093Z,10.55
2023-04-29T18:13:59.267Z,9.43
2023-04-29T18:16:26.341Z,13.63
2023-04-29T18:18:56.020Z,12.90
2023-04-29T18:21:26.069Z,9.20
2023-04-29T18:23:56.420Z,8.65
2023-04-29T18:26:24.608Z,12.50
2023-04-29T18:28:51.733Z,10.88
2023-04-29T18:31:20.132Z,14.73
2023-04-29T18:33:47.245Z,13.50
2023-04-29T18:36:14.449Z,9.60
2023-04-29T18:38:41.659Z,12.32
2023-04-29T18:41:09.081Z,10.68
2023-04-29T18:43:36.721Z,7.60
2023-04-29T18:46:03.916Z,12.27
2023-04-29T18:48:31.498Z,8.88
2023-04-29T18:51:00.410Z,12.27
2023-04-29T18:53:27.445Z,16.42
2023-04-29T18:55:54.700Z,10.05
2023-04-29T18:58:22.150Z,11.80
2023-04-29T19:00:49.261Z,9.10
2023-04-29T19:03:16.558Z,9.73
2023-04-29T19:05:43.815Z,8.35
2023-04-29T19:08:10.908Z,14.45
2023-04-29T19:10:38.035Z,16.40
2023-04-29T19:13:05.069Z,9.70
2023-04-29T19:15:32.319Z,13.25
2023-04-29T19:17:59.422Z,10.55
2023-04-29T19:20:27.039Z,10.52
2023-04-29T19:22:54.113Z,12.02
2023-04-29T19:25:21.761Z,9.63
2023-04-29T19:27:49.180Z,14.50
2023-04-29T19:30:16.662Z,9.65
2023-04-29T19:32:46.473Z,10.52
2023-04-29T19:35:13.645Z,10.43
2023-04-29T19:37:41.121Z,12.20
2023-04-29T19:40:10.989Z,12.57
2023-04-29T19:42:39.188Z,9.95
2023-04-29T19:45:08.165Z,11.82
2023-04-29T19:47:35.317Z,8.35
2023-04-29T19:50:02.732Z,12.02
2023-04-29T19:52:29.915Z,11.18
2023-04-29T19:54:57.045Z,8.65
2023-04-29T19:57:24.091Z,15.02
2023-04-29T19:59:51.335Z,12.27
2023-04-29T20:02:19.168Z,12.55
2023-04-29T20:04:46.453Z,14.77
2023-04-29T20:07:13.436Z,13.35
2023-04-29T20:09:40.488Z,11.55
2023-04-29T20:12:07.541Z,12.02
2023-04-29T20:14:34.622Z,11.57
2023-04-29T20:17:01.906Z,11.75
2023-04-29T20:19:30.974Z,13.07
2023-04-29T20:21:58.359Z,10.70
2023-04-29T20:24:25.355Z,14.57
2023-04-29T20:26:52.364Z,12.07
2023-04-29T20:29:19.491Z,15.32
2023-04-29T20:31:46.626Z,14.93
2023-04-29T20:34:13.721Z,13.63
2023-04-29T20:36:40.762Z,17.40
2023-04-29T20:39:09.049Z,13.20
2023-04-29T20:41:36.077Z,20.27
2023-04-29T20:44:03.307Z,14.60
2023-04-29T20:46:30.423Z,16.75
2023-04-29T20:48:57.621Z,15.07
2023-04-29T20:51:24.823Z,15.18
2023-04-29T20:53:52.024Z,14.18
2023-04-29T20:56:19.085Z,18.55
2023-04-29T20:58:46.077Z,13.23
2023-04-29T21:01:13.078Z,10.65
2023-04-29T21:03:40.618Z,11.32
2023-04-29T21:06:07.817Z,10.68
2023-04-29T21:08:34.943Z,13.48
2023-04-29T21:11:01.986Z,23.15
2023-04-29T21:13:28.955Z,13.40
2023-04-29T21:15:55.952Z,14.07
2023-04-29T21:18:23.265Z,23.58
2023-04-29T21:20:51.211Z,11.90
2023-04-29T21:23:18.214Z,17.45
2023-04-29T21:25:45.286Z,13.77
2023-04-29T21:28:12.828Z,16.52
2023-04-29T21:30:40.954Z,13.55
2023-04-29T21:33:07.996Z,13.23
2023-04-29T21:35:35.126Z,11.70
2023-04-29T21:38:02.118Z,12.18
2023-04-29T21:40:29.189Z,14.45
2023-04-29T21:42:58.080Z,13.38
2023-04-29T21:45:25.081Z,13.73
2023-04-29T21:47:52.720Z,25.83
2023-04-29T21:50:19.962Z,14.43
2023-04-29T21:52:46.998Z,17.70
2023-04-29T21:55:14.014Z,13.65
2023-04-29T21:57:44.915Z,14.63
2023-04-29T22:00:32.969Z,15.93
2023-04-29T22:03:04.353Z,15.85
2023-04-29T22:05:31.658Z,18.20
2023-04-29T22:08:00.706Z,17.15
2023-04-29T22:10:28.008Z,15.32
2023-04-29T22:12:55.998Z,17.67
2023-04-29T22:15:28.709Z,13.55
2023-04-29T22:17:57.317Z,19.15
2023-04-29T22:20:25.255Z,17.42
2023-04-29T22:22:52.504Z,15.75
2023-04-29T22:25:21.755Z,16.95
2023-04-29T22:27:50.409Z,17.08
2023-04-29T22:30:17.944Z,17.63
2023-04-29T22:32:45.595Z,17.75
2023-04-29T22:35:12.959Z,16.35
2023-04-29T22:37:40.976Z,16.15
2023-04-29T22:40:08.799Z,15.95
2023-04-29T22:42:35.827Z,20.08
2023-04-29T22:45:02.837Z,16.98
2023-04-29T22:47:30.004Z,13.40
2023-04-29T22:49:57.002Z,16.52
2023-04-29T22:52:25.861Z,15.77
2023-04-29T22:54:53.050Z,16.90
2023-04-29T22:57:20.046Z,17.35
2023-04-29T22:59:47.197Z,20.27
2023-04-29T23:02:14.362Z,15.80
2023-04-29T23:04:41.377Z,19.20
2023-04-29T23:07:08.393Z,19.67
2023-04-29T23:09:35.428Z,15.27
2023-04-29T23:12:02.794Z,18.73
2023-04-29T23:14:29.957Z,22.23
2023-04-29T23:16:57.069Z,18.20
2023-04-29T23:19:24.538Z,21.98
2023-04-29T23:21:51.505Z,18.20
2023-04-29T23:24:18.462Z,19.42
2023-04-29T23:26:45.422Z,18.00
2023-04-29T23:29:12.393Z,19.35
2023-04-29T23:31:39.423Z,14.32
2023-04-29T23:34:07.878Z,15.95
2023-04-29T23:36:36.441Z,19.23
2023-04-29T23:39:03.448Z,19.65
2023-04-29T23:41:31.877Z,21.38
2023-04-29T23:44:02.453Z,17.70
2023-04-29T23:46:30.787Z,15.93
2023-04-29T23:48:57.838Z,25.08
2023-04-29T23:51:26.294Z,17.83
2023-04-29T23:53:53.330Z,16.80
2023-04-29T23:56:20.333Z,21.98
2023-04-29T23:58:47.293Z,19.95
